CTV793 WAHS-WIII
Flight info
| Callsign | CTV793 |
|---|---|
| Flight time | 0h 46m |
| Altitude | 26000 |
| Route | KIDET W16 IMU |
| Aircraft | A320/M-SDE2E3FGHIRWY/LB1 |
Departure
| Time | 2026-04-22 11:18 |
|---|---|
| Airport | Jenderal Ahmad Yani Airport (WAHS) |
Arrival
| Time | 2026-04-22 12:04 |
|---|---|
| Airport | Soekarno-Hatta International Airport (WIII) |
| Time | Latitude | Longitude | Altitude | Speed | Heading |
|---|---|---|---|---|---|
| 2026-04-22 10:30 | -6.96710 | 110.37458 | 20 ft | 0 kts | 40° |
| 2026-04-22 11:09 | -6.96712 | 110.37457 | 19 ft | 2 kts | 40° |
| 2026-04-22 11:10 | -6.96732 | 110.37440 | 19 ft | 4 kts | 40° |
| 2026-04-22 11:10 | -6.96749 | 110.37425 | 19 ft | 4 kts | 37° |
| 2026-04-22 11:10 | -6.96771 | 110.37416 | 18 ft | 4 kts | 348° |
| 2026-04-22 11:10 | -6.96793 | 110.37428 | 20 ft | 4 kts | 311° |
| 2026-04-22 11:11 | -6.96797 | 110.37433 | 19 ft | 0 kts | 310° |
| 2026-04-22 11:13 | -6.96779 | 110.37411 | 18 ft | 10 kts | 310° |
| 2026-04-22 11:13 | -6.96738 | 110.37361 | 18 ft | 10 kts | 310° |
| 2026-04-22 11:13 | -6.96690 | 110.37304 | 18 ft | 10 kts | 310° |
| 2026-04-22 11:14 | -6.96648 | 110.37255 | 18 ft | 9 kts | 310° |
| 2026-04-22 11:14 | -6.96617 | 110.37202 | 18 ft | 8 kts | 264° |
| 2026-04-22 11:14 | -6.96667 | 110.37155 | 18 ft | 14 kts | 220° |
| 2026-04-22 11:14 | -6.96744 | 110.37090 | 13 ft | 16 kts | 220° |
| 2026-04-22 11:15 | -6.96785 | 110.36999 | 7 ft | 16 kts | 298° |
| 2026-04-22 11:15 | -6.96716 | 110.36915 | 6 ft | 17 kts | 310° |
| 2026-04-22 11:15 | -6.96636 | 110.36821 | 6 ft | 19 kts | 310° |
| 2026-04-22 11:15 | -6.96530 | 110.36696 | 5 ft | 25 kts | 310° |
| 2026-04-22 11:16 | -6.96413 | 110.36558 | 4 ft | 25 kts | 310° |
| 2026-04-22 11:16 | -6.96313 | 110.36439 | 4 ft | 17 kts | 310° |
| 2026-04-22 11:16 | -6.96270 | 110.36346 | 4 ft | 10 kts | 312° |
| 2026-04-22 11:16 | -6.96258 | 110.36373 | 5 ft | 7 kts | 124° |
| 2026-04-22 11:17 | -6.96297 | 110.36420 | 5 ft | 18 kts | 130° |
| 2026-04-22 11:17 | -6.96543 | 110.36711 | 7 ft | 90 kts | 130° |
| 2026-04-22 11:17 | -6.97081 | 110.37346 | 6 ft | 145 kts | 130° |
| 2026-04-22 11:17 | -6.97777 | 110.38160 | 489 ft | 151 kts | 130° |
| 2026-04-22 11:18 | -6.98362 | 110.39010 | 1105 ft | 148 kts | 115° |
| 2026-04-22 11:18 | -6.98762 | 110.39969 | 1669 ft | 148 kts | 110° |
| 2026-04-22 11:18 | -6.99152 | 110.40988 | 1999 ft | 166 kts | 111° |
| 2026-04-22 11:18 | -6.99599 | 110.42143 | 2210 ft | 188 kts | 111° |
| 2026-04-22 11:19 | -7.00116 | 110.43438 | 2405 ft | 211 kts | 111° |
| 2026-04-22 11:19 | -7.00698 | 110.44875 | 2625 ft | 234 kts | 111° |
| 2026-04-22 11:19 | -7.01353 | 110.46470 | 2928 ft | 259 kts | 112° |
| 2026-04-22 11:19 | -7.02067 | 110.48188 | 3551 ft | 270 kts | 111° |
| 2026-04-22 11:20 | -7.02467 | 110.50044 | 4317 ft | 275 kts | 89° |
| 2026-04-22 11:20 | -7.02077 | 110.51921 | 5116 ft | 277 kts | 64° |
| 2026-04-22 11:20 | -7.00947 | 110.53483 | 5922 ft | 278 kts | 40° |
| 2026-04-22 11:20 | -6.99292 | 110.54465 | 6729 ft | 278 kts | 17° |
| 2026-04-22 11:21 | -6.97376 | 110.54693 | 7506 ft | 280 kts | 353° |
| 2026-04-22 11:21 | -6.95522 | 110.54092 | 8272 ft | 283 kts | 329° |
| 2026-04-22 11:21 | -6.94071 | 110.52755 | 8990 ft | 288 kts | 305° |
| 2026-04-22 11:21 | -6.93077 | 110.50990 | 9700 ft | 292 kts | 299° |
| 2026-04-22 11:22 | -6.92131 | 110.49203 | 10395 ft | 295 kts | 299° |
| 2026-04-22 11:22 | -6.91154 | 110.47347 | 10831 ft | 310 kts | 298° |
| 2026-04-22 11:22 | -6.90108 | 110.45365 | 10973 ft | 332 kts | 298° |
| 2026-04-22 11:22 | -6.88980 | 110.43231 | 11308 ft | 347 kts | 299° |
| 2026-04-22 11:23 | -6.87851 | 110.41102 | 11875 ft | 352 kts | 299° |
| 2026-04-22 11:23 | -6.86690 | 110.38917 | 12494 ft | 356 kts | 299° |
| 2026-04-22 11:23 | -6.85516 | 110.36711 | 13100 ft | 359 kts | 299° |
| 2026-04-22 11:23 | -6.84330 | 110.34480 | 13671 ft | 364 kts | 299° |
| 2026-04-22 11:24 | -6.83134 | 110.32226 | 14227 ft | 368 kts | 299° |
| 2026-04-22 11:24 | -6.81924 | 110.29945 | 14785 ft | 371 kts | 299° |
| 2026-04-22 11:24 | -6.80702 | 110.27643 | 15323 ft | 375 kts | 299° |
| 2026-04-22 11:24 | -6.79469 | 110.25319 | 15856 ft | 378 kts | 299° |
| 2026-04-22 11:25 | -6.78224 | 110.22973 | 16383 ft | 382 kts | 299° |
| 2026-04-22 11:25 | -6.76968 | 110.20607 | 16885 ft | 385 kts | 299° |
| 2026-04-22 11:25 | -6.75695 | 110.18216 | 17371 ft | 388 kts | 299° |
| 2026-04-22 11:25 | -6.74415 | 110.15810 | 17851 ft | 392 kts | 299° |
| 2026-04-22 11:26 | -6.73124 | 110.13384 | 18316 ft | 395 kts | 299° |
| 2026-04-22 11:26 | -6.71822 | 110.10938 | 18779 ft | 398 kts | 299° |
| 2026-04-22 11:26 | -6.70510 | 110.08474 | 19228 ft | 401 kts | 299° |
| 2026-04-22 11:26 | -6.69190 | 110.05993 | 19668 ft | 404 kts | 299° |
| 2026-04-22 11:27 | -6.67862 | 110.03499 | 20091 ft | 406 kts | 299° |
| 2026-04-22 11:27 | -6.66521 | 110.00984 | 20506 ft | 409 kts | 299° |
| 2026-04-22 11:27 | -6.65172 | 109.98455 | 20908 ft | 411 kts | 299° |
| 2026-04-22 11:27 | -6.63815 | 109.95910 | 21303 ft | 414 kts | 299° |
| 2026-04-22 11:28 | -6.62449 | 109.93349 | 21679 ft | 417 kts | 299° |
| 2026-04-22 11:28 | -6.61094 | 109.90807 | 22049 ft | 419 kts | 299° |
| 2026-04-22 11:28 | -6.59699 | 109.88186 | 22412 ft | 422 kts | 299° |
| 2026-04-22 11:28 | -6.58312 | 109.85579 | 22766 ft | 424 kts | 299° |
| 2026-04-22 11:29 | -6.56937 | 109.82991 | 23091 ft | 426 kts | 299° |
| 2026-04-22 11:29 | -6.55531 | 109.80356 | 23426 ft | 429 kts | 299° |
| 2026-04-22 11:29 | -6.54117 | 109.77708 | 23753 ft | 431 kts | 299° |
| 2026-04-22 11:29 | -6.52696 | 109.75047 | 24065 ft | 433 kts | 299° |
| 2026-04-22 11:30 | -6.51268 | 109.72372 | 24376 ft | 435 kts | 299° |
| 2026-04-22 11:30 | -6.49832 | 109.69684 | 24680 ft | 437 kts | 299° |
| 2026-04-22 11:30 | -6.48390 | 109.66984 | 24980 ft | 439 kts | 299° |
| 2026-04-22 11:30 | -6.46941 | 109.64270 | 25285 ft | 441 kts | 299° |
| 2026-04-22 11:31 | -6.45487 | 109.61544 | 25575 ft | 443 kts | 299° |
| 2026-04-22 11:31 | -6.44029 | 109.58806 | 25803 ft | 445 kts | 299° |
| 2026-04-22 11:31 | -6.42582 | 109.56085 | 25855 ft | 437 kts | 299° |
| 2026-04-22 11:31 | -6.41159 | 109.53410 | 25860 ft | 433 kts | 299° |
| 2026-04-22 11:32 | -6.39735 | 109.50740 | 25859 ft | 432 kts | 299° |
| 2026-04-22 11:32 | -6.38317 | 109.48090 | 25860 ft | 431 kts | 299° |
| 2026-04-22 11:32 | -6.36896 | 109.45436 | 25860 ft | 431 kts | 299° |
| 2026-04-22 11:32 | -6.35476 | 109.42783 | 25860 ft | 431 kts | 299° |
| 2026-04-22 11:33 | -6.34059 | 109.40130 | 25859 ft | 431 kts | 299° |
| 2026-04-22 11:33 | -6.32644 | 109.37476 | 25860 ft | 431 kts | 299° |
| 2026-04-22 11:33 | -6.31318 | 109.34777 | 25859 ft | 431 kts | 292° |
| 2026-04-22 11:33 | -6.30450 | 109.31892 | 25859 ft | 432 kts | 282° |
| 2026-04-22 11:34 | -6.30108 | 109.28895 | 25857 ft | 432 kts | 271° |
| 2026-04-22 11:34 | -6.30116 | 109.25874 | 25855 ft | 432 kts | 270° |
| 2026-04-22 11:34 | -6.30133 | 109.22854 | 25859 ft | 432 kts | 270° |
| 2026-04-22 11:34 | -6.30148 | 109.19836 | 25851 ft | 432 kts | 270° |
| 2026-04-22 11:35 | -6.30160 | 109.16818 | 25849 ft | 432 kts | 270° |
| 2026-04-22 11:35 | -6.30173 | 109.13801 | 25847 ft | 432 kts | 270° |
| 2026-04-22 11:35 | -6.30186 | 109.10788 | 25847 ft | 432 kts | 270° |
| 2026-04-22 11:35 | -6.30199 | 109.07766 | 25846 ft | 432 kts | 270° |
| 2026-04-22 11:36 | -6.30209 | 109.04749 | 25845 ft | 431 kts | 271° |
| 2026-04-22 11:36 | -6.30215 | 109.01737 | 25846 ft | 431 kts | 270° |
| 2026-04-22 11:36 | -6.30224 | 108.98719 | 25847 ft | 431 kts | 270° |
| 2026-04-22 11:36 | -6.30236 | 108.95712 | 25848 ft | 431 kts | 270° |
| 2026-04-22 11:37 | -6.30250 | 108.92700 | 25849 ft | 431 kts | 270° |
| 2026-04-22 11:37 | -6.30261 | 108.89688 | 25849 ft | 431 kts | 270° |
| 2026-04-22 11:37 | -6.30273 | 108.86678 | 25851 ft | 431 kts | 270° |
| 2026-04-22 11:37 | -6.30285 | 108.83668 | 25853 ft | 431 kts | 271° |
| 2026-04-22 11:38 | -6.30033 | 108.80723 | 25847 ft | 429 kts | 284° |
| 2026-04-22 11:38 | -6.29066 | 108.77902 | 25849 ft | 427 kts | 293° |
| 2026-04-22 11:38 | -6.26766 | 108.72401 | 25846 ft | 427 kts | 294° |
| 2026-04-22 11:39 | -6.25610 | 108.69653 | 25843 ft | 427 kts | 294° |
| 2026-04-22 11:39 | -6.24452 | 108.66904 | 25844 ft | 427 kts | 294° |
| 2026-04-22 11:39 | -6.23293 | 108.64156 | 25841 ft | 427 kts | 294° |
| 2026-04-22 11:39 | -6.22135 | 108.61409 | 25843 ft | 427 kts | 294° |
| 2026-04-22 11:40 | -6.20979 | 108.58660 | 25840 ft | 427 kts | 294° |
| 2026-04-22 11:40 | -6.19825 | 108.55912 | 25837 ft | 427 kts | 294° |
| 2026-04-22 11:40 | -6.18670 | 108.53165 | 25838 ft | 427 kts | 294° |
| 2026-04-22 11:40 | -6.17513 | 108.50420 | 25835 ft | 427 kts | 294° |
| 2026-04-22 11:41 | -6.16360 | 108.47680 | 25832 ft | 427 kts | 294° |
| 2026-04-22 11:41 | -6.15205 | 108.44935 | 25832 ft | 426 kts | 294° |
| 2026-04-22 11:41 | -6.14051 | 108.42191 | 25827 ft | 426 kts | 294° |
| 2026-04-22 11:41 | -6.12899 | 108.39447 | 25826 ft | 426 kts | 293° |
| 2026-04-22 11:42 | -6.11763 | 108.36697 | 25827 ft | 426 kts | 293° |
| 2026-04-22 11:42 | -6.10638 | 108.33942 | 25828 ft | 426 kts | 293° |
| 2026-04-22 11:42 | -6.09520 | 108.31184 | 25831 ft | 426 kts | 293° |
| 2026-04-22 11:42 | -6.08404 | 108.28426 | 25823 ft | 426 kts | 293° |
| 2026-04-22 11:43 | -6.07285 | 108.25670 | 25818 ft | 426 kts | 293° |
| 2026-04-22 11:43 | -6.06159 | 108.22917 | 25821 ft | 426 kts | 293° |
| 2026-04-22 11:43 | -6.05031 | 108.20167 | 25827 ft | 426 kts | 293° |
| 2026-04-22 11:43 | -6.03905 | 108.17418 | 25746 ft | 423 kts | 293° |
| 2026-04-22 11:44 | -6.02796 | 108.14711 | 25499 ft | 416 kts | 293° |
| 2026-04-22 11:44 | -6.01700 | 108.12037 | 25243 ft | 412 kts | 293° |
| 2026-04-22 11:44 | -6.00633 | 108.09433 | 24836 ft | 406 kts | 293° |
| 2026-04-22 11:44 | -5.99564 | 108.06821 | 24355 ft | 402 kts | 293° |
| 2026-04-22 11:45 | -5.98506 | 108.04237 | 23882 ft | 398 kts | 293° |
| 2026-04-22 11:45 | -5.97457 | 108.01681 | 23412 ft | 394 kts | 293° |
| 2026-04-22 11:45 | -5.96564 | 107.99097 | 22945 ft | 391 kts | 284° |
| 2026-04-22 11:45 | -5.96178 | 107.96406 | 22469 ft | 389 kts | 272° |
| 2026-04-22 11:46 | -5.96169 | 107.93700 | 22010 ft | 386 kts | 270° |
| 2026-04-22 11:46 | -5.96175 | 107.91011 | 21553 ft | 384 kts | 270° |
| 2026-04-22 11:46 | -5.96177 | 107.88341 | 21066 ft | 382 kts | 271° |
| 2026-04-22 11:46 | -5.96178 | 107.85681 | 20597 ft | 380 kts | 270° |
| 2026-04-22 11:47 | -5.96181 | 107.83033 | 20117 ft | 378 kts | 271° |
| 2026-04-22 11:47 | -5.96181 | 107.80396 | 19638 ft | 377 kts | 271° |
| 2026-04-22 11:47 | -5.96179 | 107.77773 | 19229 ft | 373 kts | 271° |
| 2026-04-22 11:47 | -5.96179 | 107.75168 | 18745 ft | 372 kts | 271° |
| 2026-04-22 11:48 | -5.96179 | 107.72579 | 18255 ft | 371 kts | 271° |
| 2026-04-22 11:48 | -5.96177 | 107.70007 | 17901 ft | 367 kts | 271° |
| 2026-04-22 11:48 | -5.96180 | 107.67446 | 17531 ft | 363 kts | 271° |
| 2026-04-22 11:48 | -5.96180 | 107.64949 | 17415 ft | 352 kts | 271° |
| 2026-04-22 11:49 | -5.96178 | 107.62524 | 17203 ft | 344 kts | 271° |
| 2026-04-22 11:49 | -5.96176 | 107.60133 | 16851 ft | 341 kts | 271° |
| 2026-04-22 11:49 | -5.96176 | 107.57759 | 16497 ft | 339 kts | 271° |
| 2026-04-22 11:49 | -5.96178 | 107.55401 | 16153 ft | 336 kts | 270° |
| 2026-04-22 11:50 | -5.96180 | 107.53067 | 15787 ft | 332 kts | 271° |
| 2026-04-22 11:50 | -5.96180 | 107.50755 | 15159 ft | 329 kts | 271° |
| 2026-04-22 11:50 | -5.96179 | 107.48470 | 14537 ft | 325 kts | 271° |
| 2026-04-22 11:50 | -5.96177 | 107.46213 | 13930 ft | 321 kts | 271° |
| 2026-04-22 11:51 | -5.96178 | 107.43986 | 13331 ft | 317 kts | 271° |
| 2026-04-22 11:51 | -5.96179 | 107.41784 | 12732 ft | 313 kts | 270° |
| 2026-04-22 11:51 | -5.96180 | 107.39607 | 12124 ft | 310 kts | 270° |
| 2026-04-22 11:51 | -5.96180 | 107.37489 | 11561 ft | 304 kts | 270° |
| 2026-04-22 11:52 | -5.96182 | 107.35400 | 11252 ft | 291 kts | 270° |
| 2026-04-22 11:52 | -5.96183 | 107.33414 | 10911 ft | 280 kts | 270° |
| 2026-04-22 11:52 | -5.96182 | 107.31497 | 10925 ft | 271 kts | 270° |
| 2026-04-22 11:52 | -5.96179 | 107.29562 | 10653 ft | 278 kts | 270° |
| 2026-04-22 11:53 | -5.96174 | 107.27612 | 10273 ft | 279 kts | 270° |
| 2026-04-22 11:53 | -5.96170 | 107.25668 | 9868 ft | 281 kts | 270° |
| 2026-04-22 11:53 | -5.96168 | 107.23726 | 9604 ft | 276 kts | 270° |
| 2026-04-22 11:53 | -5.96167 | 107.21804 | 9260 ft | 274 kts | 270° |
| 2026-04-22 11:54 | -5.96165 | 107.19898 | 8707 ft | 272 kts | 270° |
| 2026-04-22 11:54 | -5.96162 | 107.18011 | 8267 ft | 268 kts | 270° |
| 2026-04-22 11:54 | -5.96159 | 107.16149 | 7892 ft | 265 kts | 270° |
| 2026-04-22 11:54 | -5.96156 | 107.14304 | 7527 ft | 263 kts | 270° |
| 2026-04-22 11:55 | -5.96152 | 107.12493 | 7369 ft | 253 kts | 270° |
| 2026-04-22 11:55 | -5.96163 | 107.10754 | 7309 ft | 246 kts | 265° |
| 2026-04-22 11:55 | -5.96544 | 107.09085 | 7128 ft | 247 kts | 249° |
| 2026-04-22 11:55 | -5.97172 | 107.07486 | 6778 ft | 246 kts | 249° |
| 2026-04-22 11:56 | -5.97798 | 107.05896 | 6437 ft | 244 kts | 248° |
| 2026-04-22 11:56 | -5.98420 | 107.04311 | 6080 ft | 244 kts | 249° |
| 2026-04-22 11:56 | -5.99038 | 107.02730 | 5737 ft | 243 kts | 249° |
| 2026-04-22 11:56 | -5.99652 | 107.01153 | 5382 ft | 242 kts | 249° |
| 2026-04-22 11:57 | -6.00235 | 106.99567 | 5034 ft | 242 kts | 250° |
| 2026-04-22 11:57 | -6.00835 | 106.98000 | 4688 ft | 240 kts | 248° |
| 2026-04-22 11:57 | -6.01453 | 106.96449 | 4400 ft | 237 kts | 248° |
| 2026-04-22 11:57 | -6.02060 | 106.94933 | 4285 ft | 231 kts | 248° |
| 2026-04-22 11:58 | -6.02660 | 106.93432 | 4293 ft | 232 kts | 248° |
| 2026-04-22 11:58 | -6.03261 | 106.91925 | 4294 ft | 232 kts | 248° |
| 2026-04-22 11:58 | -6.03861 | 106.90419 | 4293 ft | 232 kts | 248° |
| 2026-04-22 11:58 | -6.04462 | 106.88914 | 4227 ft | 233 kts | 248° |
| 2026-04-22 11:59 | -6.05060 | 106.87418 | 4084 ft | 231 kts | 248° |
| 2026-04-22 11:59 | -6.05656 | 106.85927 | 3848 ft | 229 kts | 248° |
| 2026-04-22 11:59 | -6.06049 | 106.84941 | 3661 ft | 229 kts | 248° |
| 2026-04-22 11:59 | -6.06630 | 106.83486 | 3364 ft | 219 kts | 248° |
| 2026-04-22 12:00 | -6.07182 | 106.82102 | 3088 ft | 208 kts | 248° |
| 2026-04-22 12:00 | -6.07702 | 106.80799 | 2828 ft | 193 kts | 249° |
| 2026-04-22 12:00 | -6.08183 | 106.79593 | 2564 ft | 179 kts | 248° |
| 2026-04-22 12:00 | -6.08634 | 106.78467 | 2338 ft | 168 kts | 248° |
| 2026-04-22 12:01 | -6.09055 | 106.77408 | 2123 ft | 158 kts | 249° |
| 2026-04-22 12:01 | -6.09459 | 106.76398 | 1917 ft | 155 kts | 249° |
| 2026-04-22 12:01 | -6.09858 | 106.75396 | 1712 ft | 154 kts | 250° |
| 2026-04-22 12:01 | -6.10256 | 106.74397 | 1506 ft | 154 kts | 249° |
| 2026-04-22 12:02 | -6.10655 | 106.73399 | 1304 ft | 154 kts | 250° |
| 2026-04-22 12:02 | -6.11053 | 106.72400 | 1098 ft | 154 kts | 250° |
| 2026-04-22 12:02 | -6.11451 | 106.71401 | 895 ft | 154 kts | 250° |
| 2026-04-22 12:02 | -6.11848 | 106.70401 | 688 ft | 154 kts | 250° |
| 2026-04-22 12:03 | -6.12242 | 106.69402 | 482 ft | 154 kts | 250° |
| 2026-04-22 12:03 | -6.12643 | 106.68410 | 290 ft | 153 kts | 249° |
| 2026-04-22 12:03 | -6.13042 | 106.67417 | 102 ft | 153 kts | 249° |
| 2026-04-22 12:03 | -6.13409 | 106.66471 | 42 ft | 132 kts | 248° |
| 2026-04-22 12:04 | -6.13687 | 106.65775 | 39 ft | 83 kts | 249° |
| 2026-04-22 12:04 | -6.13833 | 106.65407 | 39 ft | 38 kts | 248° |
| 2026-04-22 12:04 | -6.13893 | 106.65196 | 41 ft | 25 kts | 264° |
| 2026-04-22 12:04 | -6.13874 | 106.65033 | 39 ft | 15 kts | 301° |
| 2026-04-22 12:05 | -6.13790 | 106.65028 | 39 ft | 13 kts | 62° |
| 2026-04-22 12:05 | -6.13759 | 106.65116 | 39 ft | 16 kts | 71° |
| 2026-04-22 12:05 | -6.13718 | 106.65222 | 39 ft | 12 kts | 68° |
| 2026-04-22 12:05 | -6.13689 | 106.65293 | 39 ft | 10 kts | 68° |
| 2026-04-22 12:06 | -6.13641 | 106.65323 | 39 ft | 8 kts | 346° |
| 2026-04-22 12:06 | -6.13563 | 106.65293 | 36 ft | 13 kts | 339° |
| 2026-04-22 12:06 | -6.13478 | 106.65259 | 36 ft | 14 kts | 338° |
| 2026-04-22 12:06 | -6.13387 | 106.65224 | 38 ft | 13 kts | 339° |
| 2026-04-22 12:07 | -6.13321 | 106.65187 | 38 ft | 8 kts | 311° |
| 2026-04-22 12:07 | -6.13289 | 106.65145 | 37 ft | 7 kts | 307° |
| 2026-04-22 12:07 | -6.13263 | 106.65112 | 36 ft | 5 kts | 315° |
| 2026-04-22 12:07 | -6.13235 | 106.65103 | 38 ft | 3 kts | 12° |
| 2026-04-22 12:08 | -6.13218 | 106.65129 | 38 ft | 4 kts | 55° |
| 2026-04-22 12:08 | -6.13208 | 106.65143 | 38 ft | 1 kts | 55° |
| 2026-04-22 12:08 | -6.13206 | 106.65146 | 38 ft | 0 kts | 55° |
| 2026-04-22 12:08 | -6.13206 | 106.65147 | 38 ft | 0 kts | 55° |